createdAt,value
2023-03-31T00:01:52.992Z,98250.63
2023-03-31T00:04:24.079Z,98251.16
2023-03-31T00:06:54.240Z,98248.88
2023-03-31T00:09:24.441Z,98249.63
2023-03-31T00:11:52.193Z,98244.81
2023-03-31T00:14:20.322Z,98237.53
2023-03-31T00:16:47.280Z,98227.84
2023-03-31T00:19:21.306Z,98234.75
2023-03-31T00:21:48.656Z,98221.84
2023-03-31T00:24:16.219Z,98227.41
2023-03-31T00:26:43.095Z,98214.97
2023-03-31T00:29:11.522Z,98210.47
2023-03-31T00:31:39.042Z,98216.56
2023-03-31T00:34:06.240Z,98182.06
2023-03-31T00:36:36.973Z,98196.28
2023-03-31T00:39:09.162Z,98190.47
2023-03-31T00:41:39.348Z,98201.13
2023-03-31T00:44:24.782Z,98173.28
2023-03-31T00:46:52.530Z,98182.44
2023-03-31T00:49:25.169Z,98183.47
2023-03-31T00:51:52.413Z,98186.25
2023-03-31T00:54:19.598Z,98181.94
2023-03-31T00:56:50.562Z,98186.50
2023-03-31T00:59:17.862Z,98182.97
2023-03-31T01:01:46.547Z,98168.81
2023-03-31T01:04:14.408Z,98164.28
2023-03-31T01:06:52.463Z,98154.66
2023-03-31T01:09:20.220Z,98152.13
2023-03-31T01:11:47.793Z,98146.78
2023-03-31T01:14:14.308Z,98146.00
2023-03-31T01:16:40.837Z,98120.69
2023-03-31T01:19:16.039Z,98139.72
2023-03-31T01:22:02.672Z,98138.72
2023-03-31T01:24:47.125Z,98132.16
2023-03-31T01:27:22.842Z,98131.94
2023-03-31T01:29:59.825Z,98124.88
2023-03-31T01:32:55.429Z,98120.28
2023-03-31T01:35:24.860Z,98110.72
2023-03-31T01:38:36.679Z,98110.44
2023-03-31T01:41:11.766Z,98113.72
2023-03-31T01:43:49.069Z,98107.38
2023-03-31T01:46:25.639Z,98108.16
2023-03-31T01:49:01.367Z,98109.41
2023-03-31T01:51:36.818Z,98099.06
2023-03-31T01:54:27.835Z,98097.31
2023-03-31T01:57:01.725Z,98095.03
2023-03-31T01:59:34.951Z,98088.47
2023-03-31T02:02:31.481Z,98074.06
2023-03-31T02:05:25.673Z,98079.88
2023-03-31T02:08:06.638Z,98066.72
2023-03-31T02:10:33.352Z,98063.47
2023-03-31T02:13:01.189Z,98064.72
2023-03-31T02:15:34.887Z,98058.69
2023-03-31T02:18:03.666Z,98040.94
2023-03-31T02:20:32.622Z,98058.69
2023-03-31T02:22:59.613Z,98056.94
2023-03-31T02:25:38.671Z,98052.41
2023-03-31T02:28:11.097Z,98053.16
2023-03-31T02:31:06.780Z,98048.16
2023-03-31T02:33:33.323Z,98027.66
2023-03-31T02:36:00.148Z,98037.34
2023-03-31T02:38:27.068Z,98027.47
2023-03-31T02:40:53.920Z,98024.94
2023-03-31T02:43:20.542Z,98010.03
2023-03-31T02:45:51.124Z,98016.88
2023-03-31T02:48:22.223Z,98011.81
2023-03-31T02:51:07.494Z,98012.84
2023-03-31T02:53:34.038Z,98005.75
2023-03-31T02:56:12.608Z,98008.81
2023-03-31T02:59:05.377Z,97999.22
2023-03-31T03:01:47.012Z,98006.28
2023-03-31T03:04:41.986Z,97996.66
2023-03-31T03:07:14.302Z,97991.09
2023-03-31T03:10:03.402Z,97996.41
2023-03-31T03:12:40.653Z,97987.34
2023-03-31T03:15:18.995Z,97971.41
2023-03-31T03:17:47.680Z,97976.97
2023-03-31T03:20:16.195Z,97977.22
2023-03-31T03:22:43.140Z,97980.78
2023-03-31T03:25:12.102Z,97973.16
2023-03-31T03:27:39.099Z,97980.00
2023-03-31T03:30:08.718Z,97970.91
2023-03-31T03:32:35.589Z,97974.94
2023-03-31T03:35:03.560Z,97979.75
2023-03-31T03:37:30.870Z,97977.19
2023-03-31T03:39:57.578Z,97969.38
2023-03-31T03:42:24.180Z,97965.84
2023-03-31T03:44:50.821Z,97970.91
2023-03-31T03:47:17.306Z,97956.25
2023-03-31T03:49:45.182Z,97942.56
2023-03-31T03:52:11.630Z,97944.59
2023-03-31T03:54:38.162Z,97952.19
2023-03-31T03:57:04.691Z,97947.16
2023-03-31T03:59:31.189Z,97937.78
2023-03-31T04:01:57.806Z,97939.03
2023-03-31T04:04:24.506Z,97938.28
2023-03-31T04:06:51.174Z,97930.72
2023-03-31T04:09:18.114Z,97924.38
2023-03-31T04:11:44.653Z,97922.34
2023-03-31T04:14:11.193Z,97879.09
2023-03-31T04:16:38.443Z,97891.72
2023-03-31T04:19:05.168Z,97898.34
2023-03-31T04:21:34.836Z,97896.81
2023-03-31T04:24:04.400Z,97898.09
2023-03-31T04:26:42.736Z,97885.19
2023-03-31T04:29:16.325Z,97869.75
2023-03-31T04:31:43.645Z,97869.75
2023-03-31T04:34:15.184Z,97861.19
2023-03-31T04:36:49.201Z,97862.41
2023-03-31T04:39:30.780Z,97840.19
2023-03-31T04:42:01.398Z,97844.00
2023-03-31T04:44:28.627Z,97827.31
2023-03-31T04:46:55.812Z,97816.97
2023-03-31T04:49:22.812Z,97810.63
2023-03-31T04:51:49.364Z,97789.41
2023-03-31T04:54:16.187Z,97795.75
2023-03-31T04:56:42.750Z,97782.84
2023-03-31T04:59:09.369Z,97770.25
2023-03-31T05:01:36.456Z,97780.84
2023-03-31T05:04:04.305Z,97791.94
2023-03-31T05:06:31.176Z,97776.28
2023-03-31T05:08:57.767Z,97762.88
2023-03-31T05:11:24.285Z,97763.16
2023-03-31T05:13:50.910Z,97769.47
2023-03-31T05:16:18.533Z,97775.03
2023-03-31T05:18:44.979Z,97781.34
2023-03-31T05:21:19.696Z,97784.38
2023-03-31T05:23:46.532Z,97780.09
2023-03-31T05:26:13.718Z,97780.34
2023-03-31T05:28:40.432Z,97779.06
2023-03-31T05:31:07.653Z,97771.50
2023-03-31T05:33:34.698Z,97764.66
2023-03-31T05:36:01.327Z,97781.09
2023-03-31T05:38:31.631Z,97769.22
2023-03-31T05:40:58.344Z,97758.13
2023-03-31T05:43:25.102Z,97765.69
2023-03-31T05:45:51.805Z,97760.63
2023-03-31T05:48:18.508Z,97744.47
2023-03-31T05:50:45.326Z,97757.84
2023-03-31T05:53:11.846Z,97750.03
2023-03-31T05:55:39.521Z,97737.13
2023-03-31T05:58:06.804Z,97747.03
2023-03-31T06:00:33.292Z,97735.88
2023-03-31T06:02:59.879Z,97710.09
2023-03-31T06:05:26.905Z,97709.34
2023-03-31T06:07:53.906Z,97699.22
2023-03-31T06:10:20.671Z,97703.03
2023-03-31T06:12:47.115Z,97691.63
2023-03-31T06:15:13.813Z,97670.41
2023-03-31T06:17:40.430Z,97666.09
2023-03-31T06:20:16.285Z,97665.06
2023-03-31T06:22:50.946Z,97674.41
2023-03-31T06:25:17.597Z,97671.59
2023-03-31T06:27:44.086Z,97669.03
2023-03-31T06:30:11.235Z,97675.84
2023-03-31T06:32:37.678Z,97671.50
2023-03-31T06:35:04.449Z,97676.50
2023-03-31T06:37:30.980Z,97679.03
2023-03-31T06:39:57.537Z,97674.69
2023-03-31T06:42:24.076Z,97665.31
2023-03-31T06:44:50.789Z,97652.22
2023-03-31T06:47:17.266Z,97665.84
2023-03-31T06:49:43.753Z,97674.69
2023-03-31T06:52:10.230Z,97661.31
2023-03-31T06:54:36.738Z,97664.34
2023-03-31T06:57:03.349Z,97656.44
2023-03-31T06:59:29.924Z,97657.22
2023-03-31T07:01:56.496Z,97651.91
2023-03-31T07:04:23.090Z,97657.69
2023-03-31T07:06:49.513Z,97638.19
2023-03-31T07:09:16.106Z,97644.00
2023-03-31T07:11:42.530Z,97640.59
2023-03-31T07:14:08.955Z,97641.09
2023-03-31T07:16:36.239Z,97639.28
2023-03-31T07:19:04.225Z,97625.09
2023-03-31T07:21:31.230Z,97621.22
2023-03-31T07:23:58.089Z,97627.00
2023-03-31T07:26:24.597Z,97628.69
2023-03-31T07:28:51.931Z,97623.81
2023-03-31T07:31:18.568Z,97623.06
2023-03-31T07:33:45.111Z,97616.75
2023-03-31T07:36:13.747Z,97606.34
2023-03-31T07:38:42.255Z,97597.25
2023-03-31T07:41:13.528Z,97594.47
2023-03-31T07:43:40.543Z,97597.03
2023-03-31T07:46:08.499Z,97598.50
2023-03-31T07:48:35.349Z,97589.63
2023-03-31T07:51:01.898Z,97595.97
2023-03-31T07:53:28.423Z,97587.31
2023-03-31T07:55:54.954Z,97588.13
2023-03-31T07:58:21.503Z,97577.22
2023-03-31T08:00:48.017Z,97574.44
2023-03-31T08:03:14.600Z,97564.03
2023-03-31T08:05:41.155Z,97555.41
2023-03-31T08:08:07.649Z,97560.44
2023-03-31T08:10:34.300Z,97565.19
2023-03-31T08:13:00.751Z,97561.59
2023-03-31T08:15:27.311Z,97556.97
2023-03-31T08:17:53.921Z,97531.75
2023-03-31T08:20:20.458Z,97546.31
2023-03-31T08:22:47.010Z,97525.41
2023-03-31T08:25:13.549Z,97543.75
2023-03-31T08:27:40.762Z,97547.31
2023-03-31T08:30:09.386Z,97540.22
2023-03-31T08:32:36.167Z,97528.63
2023-03-31T08:35:03.565Z,97512.94
2023-03-31T08:37:30.003Z,97523.34
2023-03-31T08:39:56.484Z,97516.53
2023-03-31T08:42:39.425Z,97504.66
2023-03-31T08:45:18.296Z,97499.66
2023-03-31T08:47:45.936Z,97494.09
2023-03-31T08:50:19.559Z,97494.63
2023-03-31T08:52:50.981Z,97488.00
2023-03-31T08:55:25.937Z,97468.69
2023-03-31T08:57:52.383Z,97483.25
2023-03-31T09:00:19.267Z,97489.19
2023-03-31T09:03:07.406Z,97479.41
2023-03-31T09:06:00.580Z,97474.13
2023-03-31T09:08:36.760Z,97473.88
2023-03-31T09:11:36.918Z,97473.19
2023-03-31T09:14:14.936Z,97469.13
2023-03-31T09:17:08.299Z,97461.06
2023-03-31T09:19:58.960Z,97453.00
2023-03-31T09:22:34.938Z,97451.25
2023-03-31T09:25:06.606Z,97448.72
2023-03-31T09:27:37.277Z,97444.41
2023-03-31T09:30:20.637Z,97437.81
2023-03-31T09:32:53.456Z,97432.94
2023-03-31T09:35:25.941Z,97432.09
2023-03-31T09:37:53.984Z,97426.25
2023-03-31T09:40:25.986Z,97427.53
2023-03-31T09:43:05.004Z,97419.19
2023-03-31T09:45:33.936Z,97429.31
2023-03-31T09:48:15.237Z,97427.59
2023-03-31T09:50:54.921Z,97423.53
2023-03-31T09:53:32.217Z,97425.78
2023-03-31T09:56:04.759Z,97418.44
2023-03-31T09:58:31.732Z,97424.97
2023-03-31T10:01:03.751Z,97414.81
2023-03-31T10:03:36.480Z,97417.84
2023-03-31T10:06:09.492Z,97414.00
2023-03-31T10:08:44.686Z,97409.69
2023-03-31T10:11:12.242Z,97406.22
2023-03-31T10:14:04.840Z,97417.22
2023-03-31T10:16:43.551Z,97417.53
2023-03-31T10:19:22.291Z,97418.56
2023-03-31T10:21:56.499Z,97402.16
2023-03-31T10:24:22.948Z,97419.00
2023-03-31T10:26:52.454Z,97424.91
2023-03-31T10:29:25.750Z,97433.59
2023-03-31T10:31:52.334Z,97421.38
2023-03-31T10:34:19.214Z,97402.88
2023-03-31T10:36:50.644Z,97422.31
2023-03-31T10:39:18.024Z,97413.31
2023-03-31T10:41:50.716Z,97396.50
2023-03-31T10:44:32.524Z,97394.03
2023-03-31T10:47:06.443Z,97379.75
2023-03-31T10:49:39.417Z,97366.63
2023-03-31T10:52:16.022Z,97367.94
2023-03-31T10:54:51.206Z,97361.16
2023-03-31T10:57:18.824Z,97346.00
2023-03-31T11:00:05.679Z,97353.13
2023-03-31T11:03:03.403Z,97356.41
2023-03-31T11:05:59.715Z,97338.97
2023-03-31T11:08:32.998Z,97330.94
2023-03-31T11:11:12.704Z,97333.69
2023-03-31T11:13:59.616Z,97322.00
2023-03-31T11:16:36.849Z,97329.91
2023-03-31T11:19:06.531Z,97318.63
2023-03-31T11:21:45.417Z,97321.75
2023-03-31T11:24:31.744Z,97326.53
2023-03-31T11:27:04.036Z,97324.06
2023-03-31T11:29:35.932Z,97326.44
2023-03-31T11:32:28.361Z,97331.03
2023-03-31T11:35:14.170Z,97333.84
2023-03-31T11:38:15.918Z,97333.97
2023-03-31T11:41:04.101Z,97322.16
2023-03-31T11:43:44.415Z,97318.97
2023-03-31T11:46:30.390Z,97315.03
2023-03-31T11:49:04.801Z,97304.09
2023-03-31T11:51:34.346Z,97302.78
2023-03-31T11:54:03.884Z,97294.69
2023-03-31T11:56:38.549Z,97295.47
2023-03-31T11:59:06.439Z,97292.56
2023-03-31T12:01:54.142Z,97274.44
2023-03-31T12:04:33.780Z,97261.69
2023-03-31T12:07:15.151Z,97262.06
2023-03-31T12:09:53.656Z,97266.25
2023-03-31T12:12:24.812Z,97255.50
2023-03-31T12:15:03.195Z,97246.47
2023-03-31T12:17:29.813Z,97252.00
2023-03-31T12:19:59.830Z,97250.38
2023-03-31T12:22:29.712Z,97250.28
2023-03-31T12:24:56.348Z,97239.66
2023-03-31T12:27:42.352Z,97241.00
2023-03-31T12:30:15.816Z,97244.38
2023-03-31T12:33:09.720Z,97240.97
2023-03-31T12:35:36.206Z,97226.78
2023-03-31T12:38:06.142Z,97217.03
2023-03-31T12:40:41.927Z,97223.34
2023-03-31T12:43:11.936Z,97219.28
2023-03-31T12:45:54.449Z,97217.16
2023-03-31T12:48:33.822Z,97223.97
2023-03-31T12:51:35.927Z,97231.97
2023-03-31T12:54:20.593Z,97239.25
2023-03-31T12:57:03.308Z,97229.66
2023-03-31T12:59:35.413Z,97237.41
2023-03-31T13:02:23.506Z,97237.09
2023-03-31T13:04:50.851Z,97254.28
2023-03-31T13:07:28.217Z,97278.41
2023-03-31T13:09:59.970Z,97290.50
2023-03-31T13:12:28.670Z,97288.19
2023-03-31T13:14:59.994Z,97297.19
2023-03-31T13:17:37.051Z,97274.22
2023-03-31T13:20:38.664Z,97264.66
2023-03-31T13:23:11.507Z,97248.63
2023-03-31T13:25:46.603Z,97252.78
2023-03-31T13:28:17.363Z,97246.09
2023-03-31T13:31:06.827Z,97258.06
2023-03-31T13:33:57.511Z,97271.81
2023-03-31T13:36:50.929Z,97256.91
2023-03-31T13:39:51.623Z,97259.00
2023-03-31T13:43:06.994Z,97259.28
2023-03-31T13:45:39.477Z,97265.88
2023-03-31T13:48:21.212Z,97258.81
2023-03-31T13:50:59.473Z,97261.38
2023-03-31T13:53:28.847Z,97252.03
2023-03-31T13:56:08.662Z,97261.19
2023-03-31T13:58:50.395Z,97230.78
2023-03-31T14:01:32.995Z,97250.06
2023-03-31T14:04:22.782Z,97254.66
2023-03-31T14:06:56.863Z,97258.63
2023-03-31T14:09:33.323Z,97231.38
2023-03-31T14:12:00.745Z,97253.19
2023-03-31T14:14:29.648Z,97244.00
2023-03-31T14:16:58.414Z,97226.41
2023-03-31T14:19:40.495Z,97237.63
2023-03-31T14:22:06.975Z,97237.88
2023-03-31T14:24:54.820Z,97243.13
2023-03-31T14:27:47.466Z,97234.72
2023-03-31T14:30:24.712Z,97247.81
2023-03-31T14:33:12.462Z,97242.44
2023-03-31T14:35:43.352Z,97239.81
2023-03-31T14:38:14.742Z,97226.56
2023-03-31T14:40:47.834Z,97226.38
2023-03-31T14:43:22.880Z,97239.44
2023-03-31T14:46:00.255Z,97230.06
2023-03-31T14:48:29.292Z,97229.66
2023-03-31T14:51:01.785Z,97226.34
2023-03-31T14:53:28.888Z,97229.13
2023-03-31T14:56:01.547Z,97225.63
2023-03-31T14:58:32.121Z,97218.75
2023-03-31T15:00:58.766Z,97199.34
2023-03-31T15:03:26.055Z,97204.19
2023-03-31T15:05:59.105Z,97211.31
2023-03-31T15:08:25.884Z,97208.47
2023-03-31T15:11:02.391Z,97210.44
2023-03-31T15:13:56.799Z,97199.34
2023-03-31T15:16:30.758Z,97218.06
2023-03-31T15:19:00.078Z,97224.09
2023-03-31T15:21:28.821Z,97217.41
2023-03-31T15:23:56.306Z,97209.88
2023-03-31T15:26:40.804Z,97214.84
2023-03-31T15:29:12.640Z,97213.56
2023-03-31T15:31:40.983Z,97201.75
2023-03-31T15:34:33.280Z,97209.16
2023-03-31T15:37:00.998Z,97211.75
2023-03-31T15:39:31.247Z,97195.44
2023-03-31T15:41:58.810Z,97211.00
2023-03-31T15:44:46.507Z,97182.34
2023-03-31T15:47:17.321Z,97205.13
2023-03-31T15:49:54.587Z,97201.03
2023-03-31T15:52:28.615Z,97202.75
2023-03-31T15:54:55.299Z,97186.78
2023-03-31T15:57:22.361Z,97207.69
2023-03-31T15:59:56.035Z,97209.44
2023-03-31T16:02:25.799Z,97205.22
2023-03-31T16:04:57.054Z,97201.16
2023-03-31T16:07:30.123Z,97197.09
2023-03-31T16:10:18.950Z,97197.88
2023-03-31T16:12:56.978Z,97179.28
2023-03-31T16:15:33.160Z,97203.53
2023-03-31T16:18:05.813Z,97192.41
2023-03-31T16:20:40.317Z,97196.78
2023-03-31T16:23:19.031Z,97205.78
2023-03-31T16:25:45.902Z,97205.56
2023-03-31T16:28:18.148Z,97188.59
2023-03-31T16:30:45.648Z,97221.34
2023-03-31T16:33:17.848Z,97223.97
2023-03-31T16:35:51.002Z,97194.41
2023-03-31T16:38:17.853Z,97214.91
2023-03-31T16:40:46.802Z,97216.38
2023-03-31T16:43:17.279Z,97212.94
2023-03-31T16:45:55.293Z,97190.47
2023-03-31T16:48:23.852Z,97209.56
2023-03-31T16:50:53.165Z,97214.47
2023-03-31T16:53:34.559Z,97182.88
2023-03-31T16:56:01.817Z,97211.03
2023-03-31T16:58:29.449Z,97175.22
2023-03-31T17:00:57.509Z,97203.34
2023-03-31T17:03:24.429Z,97238.31
2023-03-31T17:05:53.130Z,97244.72
2023-03-31T17:08:21.624Z,97234.63
2023-03-31T17:11:02.968Z,97225.84
2023-03-31T17:13:32.485Z,97226.44
2023-03-31T17:16:13.177Z,97210.19
2023-03-31T17:18:44.664Z,97236.28
2023-03-31T17:21:13.722Z,97240.94
2023-03-31T17:23:41.098Z,97245.59
2023-03-31T17:26:09.607Z,97261.47
2023-03-31T17:28:36.766Z,97252.13
2023-03-31T17:31:13.978Z,97249.63
2023-03-31T17:33:41.657Z,97234.13
2023-03-31T17:36:08.392Z,97232.94
2023-03-31T17:38:34.960Z,97224.19
2023-03-31T17:41:05.607Z,97234.44
2023-03-31T17:43:33.214Z,97226.75
2023-03-31T17:46:11.920Z,97252.44
2023-03-31T17:48:39.714Z,97247.19
2023-03-31T17:51:08.470Z,97253.28
2023-03-31T17:53:35.724Z,97255.81
2023-03-31T17:56:03.767Z,97267.16
2023-03-31T17:58:31.090Z,97263.63
2023-03-31T18:00:58.464Z,97279.34
2023-03-31T18:03:27.520Z,97270.28
2023-03-31T18:05:54.204Z,97279.63
2023-03-31T18:08:20.871Z,97282.94
2023-03-31T18:10:47.333Z,97281.22
2023-03-31T18:13:14.240Z,97280.59
2023-03-31T18:15:48.387Z,97301.44
2023-03-31T18:18:15.708Z,97288.56
2023-03-31T18:20:42.408Z,97292.63
2023-03-31T18:23:09.081Z,97283.09
2023-03-31T18:25:36.094Z,97295.94
2023-03-31T18:28:02.879Z,97285.66
2023-03-31T18:30:29.332Z,97309.56
2023-03-31T18:32:56.151Z,97297.72
2023-03-31T18:35:23.348Z,97289.47
2023-03-31T18:37:49.977Z,97305.56
2023-03-31T18:40:17.796Z,97291.75
2023-03-31T18:42:44.270Z,97299.63
2023-03-31T18:45:11.221Z,97308.19
2023-03-31T18:47:37.930Z,97302.88
2023-03-31T18:50:04.918Z,97306.22
2023-03-31T18:52:31.687Z,97321.34
2023-03-31T18:54:59.032Z,97325.41
2023-03-31T18:57:26.055Z,97332.72
2023-03-31T18:59:52.665Z,97327.72
2023-03-31T19:02:19.245Z,97329.53
2023-03-31T19:04:46.992Z,97327.78
2023-03-31T19:07:15.651Z,97318.94
2023-03-31T19:09:42.843Z,97314.63
2023-03-31T19:12:11.768Z,97318.97
2023-03-31T19:14:41.370Z,97318.47
2023-03-31T19:17:09.074Z,97316.22
2023-03-31T19:19:36.860Z,97313.22
2023-03-31T19:22:04.297Z,97311.69
2023-03-31T19:24:31.621Z,97304.13
2023-03-31T19:26:58.968Z,97294.88
2023-03-31T19:29:27.657Z,97304.16
2023-03-31T19:31:55.490Z,97312.25
2023-03-31T19:34:22.681Z,97296.66
2023-03-31T19:36:50.444Z,97299.66
2023-03-31T19:39:17.700Z,97265.72
2023-03-31T19:41:44.860Z,97275.03
2023-03-31T19:44:14.122Z,97266.72
2023-03-31T19:46:41.675Z,97291.41
2023-03-31T19:49:11.181Z,97286.63
2023-03-31T19:51:38.539Z,97292.19
2023-03-31T19:54:06.354Z,97293.16
2023-03-31T19:56:36.630Z,97280.09
2023-03-31T19:59:04.840Z,97275.03
2023-03-31T20:01:33.219Z,97281.34
2023-03-31T20:04:01.767Z,97271.56
2023-03-31T20:06:31.149Z,97262.94
2023-03-31T20:09:01.280Z,97279.56
2023-03-31T20:11:34.746Z,97256.94
2023-03-31T20:14:04.850Z,97250.91
2023-03-31T20:16:39.911Z,97242.34
2023-03-31T20:19:19.440Z,97257.50
2023-03-31T20:22:09.858Z,97265.50
2023-03-31T20:24:51.278Z,97252.97
2023-03-31T20:27:31.786Z,97275.81
2023-03-31T20:30:14.832Z,97259.97
2023-03-31T20:32:55.305Z,97281.13
2023-03-31T20:35:36.225Z,97272.28
2023-03-31T20:38:17.405Z,97269.00
2023-03-31T20:41:02.060Z,97271.56
2023-03-31T20:43:47.504Z,97266.00
2023-03-31T20:46:29.430Z,97257.69
2023-03-31T20:49:10.718Z,97240.63
2023-03-31T20:51:47.025Z,97267.03
2023-03-31T20:54:14.885Z,97251.72
2023-03-31T20:56:41.772Z,97274.84
2023-03-31T20:59:11.352Z,97264.72
2023-03-31T21:01:38.447Z,97255.19
2023-03-31T21:04:06.709Z,97264.47
2023-03-31T21:06:41.806Z,97274.06
2023-03-31T21:09:08.830Z,97277.13
2023-03-31T21:11:35.426Z,97276.84
2023-03-31T21:14:02.296Z,97272.59
2023-03-31T21:16:28.866Z,97274.84
2023-03-31T21:18:55.617Z,97272.06
2023-03-31T21:21:24.383Z,97279.63
2023-03-31T21:23:51.513Z,97264.56
2023-03-31T21:26:18.601Z,97286.94
2023-03-31T21:28:45.911Z,97289.94
2023-03-31T21:31:15.240Z,97285.44
2023-03-31T21:33:42.833Z,97283.16
2023-03-31T21:36:14.750Z,97281.13
2023-03-31T21:38:41.303Z,97262.53
2023-03-31T21:41:31.337Z,97291.50
2023-03-31T21:44:00.498Z,97278.13
2023-03-31T21:46:30.452Z,97252.22
2023-03-31T21:48:57.612Z,97264.84
2023-03-31T21:51:25.067Z,97269.81
2023-03-31T21:53:55.067Z,97275.84
2023-03-31T21:56:27.523Z,97276.63
2023-03-31T21:58:54.079Z,97282.16
2023-03-31T22:01:21.517Z,97287.97
2023-03-31T22:03:48.815Z,97295.06
2023-03-31T22:06:15.887Z,97284.22
2023-03-31T22:08:42.456Z,97277.13
2023-03-31T22:11:10.380Z,97283.44
2023-03-31T22:13:37.578Z,97272.84
2023-03-31T22:16:05.377Z,97291.00
2023-03-31T22:18:32.131Z,97281.97
2023-03-31T22:20:58.628Z,97280.66
2023-03-31T22:23:26.039Z,97280.69
2023-03-31T22:25:52.496Z,97283.69
2023-03-31T22:28:19.019Z,97270.09
2023-03-31T22:30:45.511Z,97297.25
2023-03-31T22:33:12.625Z,97302.31
2023-03-31T22:35:39.160Z,97303.34
2023-03-31T22:38:06.594Z,97303.34
2023-03-31T22:40:34.640Z,97295.53
2023-03-31T22:43:01.486Z,97295.06
2023-03-31T22:45:28.296Z,97305.13
2023-03-31T22:47:55.057Z,97305.66
2023-03-31T22:50:21.574Z,97296.56
2023-03-31T22:52:48.013Z,97294.28
2023-03-31T22:55:14.629Z,97287.97
2023-03-31T22:57:41.314Z,97289.25
2023-03-31T23:00:10.849Z,97294.56
2023-03-31T23:02:37.392Z,97288.75
2023-03-31T23:05:04.053Z,97287.28
2023-03-31T23:07:30.564Z,97290.81
2023-03-31T23:09:57.073Z,97301.91
2023-03-31T23:12:27.246Z,97295.59
2023-03-31T23:14:54.064Z,97302.88
2023-03-31T23:17:20.716Z,97303.66
2023-03-31T23:19:47.962Z,97309.72
2023-03-31T23:22:14.608Z,97295.88
2023-03-31T23:24:41.625Z,97299.84
2023-03-31T23:27:08.660Z,97280.97
2023-03-31T23:29:35.564Z,97293.25
2023-03-31T23:32:02.711Z,97291.00
2023-03-31T23:34:29.288Z,97287.47
2023-03-31T23:36:55.685Z,97275.84
2023-03-31T23:39:22.583Z,97264.81
2023-03-31T23:41:49.187Z,97253.44
2023-03-31T23:44:15.597Z,97248.94
2023-03-31T23:46:44.139Z,97258.72
2023-03-31T23:49:11.240Z,97257.44
2023-03-31T23:51:37.727Z,97264.47
2023-03-31T23:54:04.211Z,97268.78
2023-03-31T23:56:30.961Z,97261.94
2023-03-31T23:58:57.512Z,97273.28
